Time;durP1;ratioP1;P1;durP2;ratioP2;P2;SDS_P1;SDS_P2;PMS_P1;PMS_P2;Temp;Humidity;BMP_temperature;BMP_pressure;BME280_temperature;BME280_humidity;BME280_pressure;Samples;Min_cycle;Max_cycle;Signal;HPM_P1;HPM_P2
2023/01/05 00:01:10;;;;;;;11.10;9.40;;;;;;;6.91;94.33;98969.41;99781;1296;139078;-69
2023/01/05 00:03:37;;;;;;;11.30;8.90;;;;;;;6.93;94.54;98971.05;101142;1292;110389;-69
2023/01/05 00:06:05;;;;;;;13.50;9.10;;;;;;;6.95;94.50;98964.09;99802;1292;138493;-70
2023/01/05 00:08:32;;;;;;;11.70;9.10;;;;;;;6.96;94.35;98954.70;99945;1298;97857;-69
2023/01/05 00:24:47;;;;;;;11.80;8.40;;;;;;;7.07;94.61;98940.47;99421;1297;137675;-70
2023/01/05 00:27:14;;;;;;;11.10;8.80;;;;;;;7.09;94.55;98928.50;99526;1296;97855;-69
2023/01/05 00:29:41;;;;;;;10.30;8.60;;;;;;;7.10;94.46;98929.80;99414;1293;137977;-70
2023/01/05 00:32:08;;;;;;;10.30;8.10;;;;;;;7.13;94.57;98934.38;99428;1291;108167;-70
2023/01/05 00:34:35;;;;;;;8.80;7.60;;;;;;;7.15;94.34;98925.48;99576;1296;97777;-69
2023/01/05 00:37:02;;;;;;;8.10;7.20;;;;;;;7.17;94.39;98927.79;99467;1304;138932;-70
2023/01/05 00:39:31;;;;;;;11.50;7.10;;;;;;;7.19;94.39;98928.79;99434;1298;97876;-70
2023/01/05 00:41:58;;;;;;;9.90;7.40;;;;;;;7.20;94.30;98918.17;99425;1297;138492;-70
2023/01/05 00:44:25;;;;;;;9.10;7.40;;;;;;;7.23;94.32;98924.98;98804;1297;1003706;-70
2023/01/05 00:46:53;;;;;;;8.80;7.00;;;;;;;7.25;94.28;98921.98;99600;1293;98074;-69
2023/01/05 00:49:20;;;;;;;9.10;7.50;;;;;;;7.27;94.28;98910.29;99368;1303;137788;-70
2023/01/05 00:51:47;;;;;;;10.30;7.70;;;;;;;7.30;94.05;98909.86;98904;1304;1003061;-69
2023/01/05 00:54:14;;;;;;;8.30;6.80;;;;;;;7.32;93.94;98900.26;99799;1282;138396;-69
2023/01/05 00:56:41;;;;;;;8.20;6.80;;;;;;;7.34;93.98;98894.12;99917;1291;107571;-70
2023/01/05 00:59:08;;;;;;;8.50;6.40;;;;;;;7.36;93.90;98896.80;99951;1291;97997;-70
2023/01/05 01:01:35;;;;;;;8.00;6.50;;;;;;;7.37;93.64;98900.42;99794;1291;137583;-70
2023/01/05 01:04:02;;;;;;;6.90;6.00;;;;;;;7.38;93.59;98896.57;99876;1292;97800;-70
2023/01/05 01:06:29;;;;;;;8.50;6.50;;;;;;;7.40;93.61;98892.67;99773;1291;137857;-69
2023/01/05 01:08:58;;;;;;;8.90;6.30;;;;;;;7.42;93.61;98888.80;99931;1285;107205;-69
2023/01/05 01:11:24;;;;;;;7.30;6.00;;;;;;;7.43;93.36;98888.05;99904;1291;98400;-69
2023/01/05 01:13:51;;;;;;;7.30;5.60;;;;;;;7.44;93.43;98883.19;99831;1291;137588;-70
2023/01/05 01:16:19;;;;;;;7.70;5.80;;;;;;;7.44;93.29;98878.15;99938;1292;96195;-69
2023/01/05 01:18:46;;;;;;;7.80;5.80;;;;;;;7.46;93.43;98869.73;99910;1283;137558;-69
2023/01/05 01:21:13;;;;;;;6.40;5.70;;;;;;;7.48;93.24;98875.89;99913;1291;107242;-70
2023/01/05 01:23:40;;;;;;;8.30;5.80;;;;;;;7.49;93.30;98871.87;99794;1290;139328;-70
2023/01/05 01:26:09;;;;;;;8.00;5.90;;;;;;;7.50;93.62;98866.47;99918;1297;108727;-69
2023/01/05 01:28:36;;;;;;;7.50;5.70;;;;;;;7.50;93.60;98863.33;99906;1292;97615;-69
2023/01/05 01:31:03;;;;;;;8.00;6.40;;;;;;;7.50;93.60;98859.38;99859;1292;137521;-70
2023/01/05 01:33:31;;;;;;;11.00;5.90;;;;;;;7.49;93.66;98860.98;99867;1293;107105;-70
2023/01/05 01:35:59;;;;;;;6.40;5.70;;;;;;;7.50;93.70;98858.18;99818;1290;138614;-69
2023/01/05 01:38:26;;;;;;;7.00;5.80;;;;;;;7.49;93.92;98854.04;99902;1290;108901;-69
2023/01/05 01:40:53;;;;;;;8.80;5.80;;;;;;;7.49;93.87;98856.12;99937;1288;97935;-70
2023/01/05 01:43:35;;;;;;;7.50;5.60;;;;;;;7.48;93.95;98851.85;99861;1290;137625;-70
2023/01/05 01:46:03;;;;;;;9.10;5.70;;;;;;;7.47;94.09;98839.11;99900;1298;106518;-70
2023/01/05 01:48:31;;;;;;;5.70;4.90;;;;;;;7.46;94.24;98827.89;99840;1301;137800;-70
2023/01/05 01:50:59;;;;;;;7.20;5.20;;;;;;;7.45;94.16;98819.11;99889;1292;107467;-69
2023/01/05 01:53:38;;;;;;;7.50;5.10;;;;;;;7.46;94.39;98817.38;99895;1296;97872;-70
2023/01/05 01:56:11;;;;;;;6.10;5.10;;;;;;;7.45;94.51;98811.67;99941;1294;110866;-70
2023/01/05 01:58:39;;;;;;;9.10;5.20;;;;;;;7.45;94.58;98807.52;99842;1291;107538;-70
2023/01/05 02:01:07;;;;;;;9.10;5.20;;;;;;;7.46;94.66;98819.63;99786;1292;137857;-70
2023/01/05 02:03:34;;;;;;;10.30;5.00;;;;;;;7.47;94.69;98809.53;99853;1284;107509;-70
2023/01/05 02:06:01;;;;;;;6.60;4.60;;;;;;;7.48;94.76;98805.68;99797;1284;138527;-69
2023/01/05 02:08:31;;;;;;;6.80;4.50;;;;;;;7.50;94.73;98799.56;99930;1291;111257;-70
2023/01/05 02:11:13;;;;;;;4.30;3.80;;;;;;;7.51;94.95;98791.71;99899;1296;107528;-69
2023/01/05 02:13:51;;;;;;;5.00;4.10;;;;;;;7.53;95.02;98790.73;99840;1292;137808;-69
2023/01/05 02:16:28;;;;;;;4.40;4.00;;;;;;;7.56;95.09;98783.73;99887;1297;108414;-69
2023/01/05 02:19:22;;;;;;;5.30;3.60;;;;;;;7.60;94.99;98784.23;99842;1289;137903;-69
2023/01/05 02:22:01;;;;;;;4.70;3.90;;;;;;;7.64;95.00;98784.26;99963;1291;111511;-69
2023/01/05 02:24:49;;;;;;;8.40;4.10;;;;;;;7.66;94.97;98782.92;99754;1292;137816;-69
2023/01/05 02:27:50;;;;;;;4.40;3.60;;;;;;;7.68;94.84;98776.98;99906;1293;97816;-69
2023/01/05 02:30:58;;;;;;;5.10;4.00;;;;;;;7.70;94.96;98767.86;99815;1290;137781;-69
2023/01/05 02:33:41;;;;;;;4.50;3.50;;;;;;;7.72;94.64;98775.95;100161;1290;98595;-68
2023/01/05 02:36:20;;;;;;;4.00;3.70;;;;;;;7.74;94.59;98764.59;100024;1291;138890;-70
2023/01/05 02:39:01;;;;;;;5.30;3.70;;;;;;;7.77;94.53;98763.42;99892;1296;107567;-70
2023/01/05 02:41:35;;;;;;;4.50;3.70;;;;;;;7.80;94.28;98773.14;99945;1288;98317;-70
2023/01/05 02:44:04;;;;;;;7.10;4.10;;;;;;;7.83;94.16;98769.52;99856;1293;107452;-69
2023/01/05 02:46:32;;;;;;;5.60;3.90;;;;;;;7.85;94.01;98764.44;99931;1292;97968;-70
2023/01/05 02:49:01;;;;;;;4.90;3.50;;;;;;;7.87;93.88;98767.46;99797;1290;137886;-69
2023/01/05 02:51:33;;;;;;;5.80;3.70;;;;;;;7.89;93.68;98761.14;99945;1297;109129;-70
2023/01/05 02:54:05;;;;;;;4.50;3.70;;;;;;;7.90;93.70;98756.09;98539;1297;1003785;-70
2023/01/05 02:56:38;;;;;;;5.50;4.00;;;;;;;7.91;93.54;98756.58;99884;1296;106496;-69
2023/01/05 02:59:10;;;;;;;5.10;3.60;;;;;;;7.93;93.44;98754.77;99921;1297;98204;-71
2023/01/05 03:01:45;;;;;;;4.00;3.60;;;;;;;7.95;93.38;98755.02;99722;1299;140195;-71
2023/01/05 03:04:20;;;;;;;4.10;3.50;;;;;;;7.97;93.33;98750.95;99871;1290;106794;-70
2023/01/05 03:06:55;;;;;;;3.90;3.40;;;;;;;7.98;93.21;98747.61;99884;1284;138472;-70
2023/01/05 03:09:27;;;;;;;4.20;3.80;;;;;;;8.00;93.16;98746.30;99958;1297;107554;-70
2023/01/05 03:14:50;;;;;;;5.70;3.90;;;;;;;8.02;93.00;98740.12;99863;1297;110410;-70
2023/01/05 03:17:23;;;;;;;4.50;3.70;;;;;;;8.03;92.91;98743.23;99879;1294;108694;-70
2023/01/05 03:19:53;;;;;;;7.80;3.60;;;;;;;8.04;92.95;98737.65;99833;1291;137882;-70
2023/01/05 03:36:44;;;;;;;3.60;3.00;;;;;;;8.04;92.68;98725.52;99822;1294;137758;-71
2023/01/05 03:39:15;;;;;;;4.80;3.00;;;;;;;8.02;92.78;98719.38;99853;1290;97815;-71
2023/01/05 03:41:42;;;;;;;4.00;3.20;;;;;;;8.00;92.88;98705.80;99739;1292;139437;-70
2023/01/05 03:44:10;;;;;;;5.50;3.00;;;;;;;7.97;92.77;98706.10;99931;1290;107768;-70
2023/01/05 03:46:39;;;;;;;6.80;3.10;;;;;;;7.96;92.82;98704.95;99967;1291;97820;-71
2023/01/05 03:49:06;;;;;;;5.00;2.70;;;;;;;7.95;92.90;98701.73;99805;1291;138367;-71
2023/01/05 03:51:33;;;;;;;4.10;2.80;;;;;;;7.96;92.78;98697.16;99937;1290;97715;-71
2023/01/05 03:54:07;;;;;;;3.60;2.60;;;;;;;7.96;92.55;98702.72;99792;1291;138211;-71
2023/01/05 03:56:35;;;;;;;4.30;2.40;;;;;;;7.95;92.40;98705.35;99860;1281;107412;-70
2023/01/05 03:59:02;;;;;;;4.10;2.40;;;;;;;7.94;92.36;98701.73;99947;1296;97713;-70
2023/01/05 04:01:29;;;;;;;3.60;2.20;;;;;;;7.95;92.23;98694.46;99682;1293;138242;-70
2023/01/05 04:03:57;;;;;;;2.90;2.20;;;;;;;7.94;92.25;98695.54;100949;1299;96438;-70
2023/01/05 04:06:24;;;;;;;2.60;2.10;;;;;;;7.93;92.23;98695.40;99788;1292;138642;-71
2023/01/05 04:08:51;;;;;;;3.20;2.00;;;;;;;7.91;92.22;98688.39;99854;1297;108078;-70
2023/01/05 04:11:20;;;;;;;3.50;2.50;;;;;;;7.91;92.21;98688.07;99960;1295;98058;-71
2023/01/05 04:14:00;;;;;;;3.40;2.40;;;;;;;7.89;92.17;98684.11;99861;1291;108843;-71
2023/01/05 04:16:28;;;;;;;3.60;2.10;;;;;;;7.88;92.20;98686.27;99886;1298;97842;-71
2023/01/05 04:18:57;;;;;;;3.90;2.10;;;;;;;7.87;92.11;98694.42;99826;1290;137616;-69
2023/01/05 04:21:24;;;;;;;3.30;2.40;;;;;;;7.86;92.14;98697.25;99768;1299;107582;-69
2023/01/05 04:23:52;;;;;;;2.80;2.40;;;;;;;7.85;92.23;98700.26;99756;1288;137879;-70
2023/01/05 04:26:19;;;;;;;3.10;2.20;;;;;;;7.83;92.31;98698.08;99896;1297;107627;-70
2023/01/05 04:28:48;;;;;;;3.80;2.70;;;;;;;7.82;92.40;98706.27;99900;1298;97833;-70
2023/01/05 04:31:17;;;;;;;2.80;1.90;;;;;;;7.81;92.53;98703.38;99869;1290;137607;-69
2023/01/05 04:33:44;;;;;;;3.50;2.30;;;;;;;7.79;92.48;98698.96;99887;1294;107866;-70
2023/01/05 04:36:14;;;;;;;4.90;2.00;;;;;;;7.77;92.56;98704.75;99754;1284;138263;-70
2023/01/05 04:38:41;;;;;;;4.40;2.30;;;;;;;7.76;92.38;98708.63;99875;1291;107473;-70
2023/01/05 04:41:10;;;;;;;2.50;2.10;;;;;;;7.74;92.32;98701.08;99888;1291;97817;-70
2023/01/05 04:43:38;;;;;;;2.20;1.80;;;;;;;7.73;92.33;98696.84;100014;1291;138028;-69
2023/01/05 04:46:06;;;;;;;2.10;1.70;;;;;;;7.69;92.31;98700.62;99969;1290;106664;-71
2023/01/05 04:48:33;;;;;;;4.50;2.10;;;;;;;7.68;92.36;98696.52;99810;1285;137852;-69
2023/01/05 04:51:02;;;;;;;3.30;2.20;;;;;;;7.66;92.53;98695.91;99930;1284;105399;-69
2023/01/05 04:53:32;;;;;;;2.30;1.80;;;;;;;7.65;92.64;98696.33;99965;1291;97946;-70
2023/01/05 04:56:00;;;;;;;3.10;2.60;;;;;;;7.63;92.65;98697.44;99909;1291;111308;-70
2023/01/05 04:58:31;;;;;;;2.50;2.30;;;;;;;7.63;92.82;98696.43;99932;1291;106618;-70
2023/01/05 05:00:58;;;;;;;4.60;2.50;;;;;;;7.62;93.00;98695.59;99822;1298;137777;-70
2023/01/05 05:03:27;;;;;;;2.60;2.40;;;;;;;7.60;92.98;98692.90;99950;1298;105704;-70
2023/01/05 05:05:59;;;;;;;3.90;2.70;;;;;;;7.59;93.12;98689.98;99766;1292;139089;-70
2023/01/05 05:08:27;;;;;;;3.00;2.30;;;;;;;7.59;93.19;98694.02;99937;1291;110289;-70
2023/01/05 05:10:55;;;;;;;3.00;2.70;;;;;;;7.59;93.40;98687.95;99944;1296;108689;-70
2023/01/05 05:13:23;;;;;;;4.70;2.90;;;;;;;7.58;93.32;98689.71;99869;1290;138216;-70
2023/01/05 05:15:51;;;;;;;3.90;2.90;;;;;;;7.59;93.42;98688.11;99882;1292;110197;-70
2023/01/05 05:18:20;;;;;;;3.60;3.20;;;;;;;7.60;93.38;98696.39;99810;1291;138115;-70
2023/01/05 05:20:51;;;;;;;2.80;2.50;;;;;;;7.59;93.58;98701.25;99909;1291;110127;-70
2023/01/05 05:23:19;;;;;;;5.20;3.20;;;;;;;7.58;93.66;98701.29;99896;1291;107528;-70
2023/01/05 05:25:49;;;;;;;3.80;2.90;;;;;;;7.58;93.72;98699.08;99871;1292;137776;-70
2023/01/05 05:28:16;;;;;;;5.40;2.70;;;;;;;7.57;93.75;98700.48;100060;1294;107296;-70
2023/01/05 05:30:44;;;;;;;3.10;2.60;;;;;;;7.56;93.78;98698.97;99895;1295;138158;-70
2023/01/05 05:33:11;;;;;;;4.60;2.80;;;;;;;7.54;93.61;98703.88;99996;1288;110965;-69
2023/01/05 05:35:38;;;;;;;3.20;2.70;;;;;;;7.52;93.78;98699.98;98498;1290;1003429;-70
2023/01/05 05:38:05;;;;;;;3.70;2.90;;;;;;;7.51;93.66;98702.97;99910;1288;97805;-69
2023/01/05 05:40:32;;;;;;;3.80;2.50;;;;;;;7.50;93.59;98709.75;99931;1298;108207;-69
2023/01/05 05:42:59;;;;;;;2.90;2.10;;;;;;;7.50;93.62;98710.48;99801;1290;138774;-69
2023/01/05 05:45:26;;;;;;;2.80;1.80;;;;;;;7.49;93.33;98707.20;99916;1284;112063;-70
2023/01/05 05:47:53;;;;;;;4.70;1.80;;;;;;;7.48;93.15;98705.52;99712;1286;137935;-69
2023/01/05 05:50:20;;;;;;;5.60;1.50;;;;;;;7.48;92.87;98704.69;99828;1284;98357;-69
2023/01/05 05:52:48;;;;;;;2.00;1.50;;;;;;;7.47;92.81;98704.22;99823;1301;106692;-69
2023/01/05 05:55:15;;;;;;;2.20;1.50;;;;;;;7.47;92.53;98704.54;99724;1294;137846;-69
2023/01/05 05:57:42;;;;;;;3.30;1.60;;;;;;;7.47;92.34;98709.56;99805;1293;111923;-69
2023/01/05 06:00:11;;;;;;;1.60;1.30;;;;;;;7.47;92.23;98708.70;99708;1299;137886;-71
2023/01/05 06:02:39;;;;;;;3.80;1.50;;;;;;;7.47;91.89;98707.16;99991;1291;97815;-69
2023/01/05 06:05:08;;;;;;;2.20;1.40;;;;;;;7.46;91.97;98714.30;99850;1291;108846;-70
2023/01/05 06:07:35;;;;;;;1.90;1.50;;;;;;;7.44;91.62;98705.72;101204;1300;137850;-70
2023/01/05 06:10:02;;;;;;;2.20;1.30;;;;;;;7.44;91.58;98711.10;100665;1294;1003813;-71
2023/01/05 06:12:29;;;;;;;2.30;1.30;;;;;;;7.43;91.43;98707.34;101237;1286;139353;-70
2023/01/05 06:14:56;;;;;;;2.80;1.30;;;;;;;7.43;91.39;98714.95;100217;1292;97719;-71
2023/01/05 06:17:23;;;;;;;1.80;1.40;;;;;;;7.43;91.34;98711.50;99822;1293;106872;-71
2023/01/05 06:19:50;;;;;;;4.20;1.60;;;;;;;7.42;91.23;98717.92;99655;1291;217098;-70
2023/01/05 06:22:17;;;;;;;4.90;1.60;;;;;;;7.42;91.21;98722.07;99832;1291;112560;-71
2023/01/05 06:24:45;;;;;;;1.60;1.30;;;;;;;7.43;91.14;98721.85;99738;1291;137709;-71
2023/01/05 06:27:12;;;;;;;2.20;1.60;;;;;;;7.43;91.02;98725.49;99838;1291;99440;-71
2023/01/05 06:29:39;;;;;;;4.10;1.90;;;;;;;7.43;91.12;98728.09;99784;1291;107353;-71
2023/01/05 06:32:07;;;;;;;4.10;1.60;;;;;;;7.43;91.13;98723.10;99850;1297;97828;-71
2023/01/05 06:34:34;;;;;;;4.60;1.60;;;;;;;7.43;91.07;98724.11;99930;1287;110996;-71
2023/01/05 06:37:01;;;;;;;3.10;1.50;;;;;;;7.43;90.92;98725.84;99683;1291;138354;-71
2023/01/05 06:39:28;;;;;;;2.90;1.50;;;;;;;7.43;91.20;98721.52;99881;1291;97947;-71
2023/01/05 06:41:55;;;;;;;2.60;1.50;;;;;;;7.43;91.15;98727.02;99689;1297;137679;-69
2023/01/05 06:44:22;;;;;;;4.70;1.80;;;;;;;7.44;91.19;98726.99;99804;1299;97812;-69
2023/01/05 06:46:49;;;;;;;4.30;1.60;;;;;;;7.43;91.28;98731.70;99833;1298;110655;-71
2023/01/05 06:49:17;;;;;;;3.70;1.60;;;;;;;7.42;91.26;98726.05;99764;1291;137720;-70
2023/01/05 06:51:44;;;;;;;2.90;2.20;;;;;;;7.41;91.27;98732.66;99879;1291;97839;-70
2023/01/05 06:54:11;;;;;;;4.00;1.80;;;;;;;7.41;91.34;98733.71;99773;1297;137789;-70
2023/01/05 06:56:38;;;;;;;7.20;2.40;;;;;;;7.42;91.42;98733.84;99872;1301;97919;-71
2023/01/05 06:59:05;;;;;;;4.00;1.80;;;;;;;7.42;91.55;98736.27;99865;1293;110840;-70
2023/01/05 07:01:32;;;;;;;3.00;2.20;;;;;;;7.43;91.61;98733.80;99709;1284;137701;-70
2023/01/05 07:03:59;;;;;;;4.20;2.10;;;;;;;7.42;91.59;98735.21;99094;1290;1002710;-70
2023/01/05 07:06:26;;;;;;;4.30;2.40;;;;;;;7.43;91.60;98735.52;99717;1283;138180;-69
2023/01/05 07:08:54;;;;;;;5.40;2.70;;;;;;;7.43;91.67;98737.44;99878;1300;97892;-70
2023/01/05 07:11:21;;;;;;;6.80;2.90;;;;;;;7.43;91.76;98740.02;99844;1293;111297;-70
2023/01/05 07:13:50;;;;;;;5.80;3.00;;;;;;;7.44;91.90;98742.05;99717;1284;137781;-70
2023/01/05 07:16:17;;;;;;;5.10;2.90;;;;;;;7.45;91.96;98746.14;99891;1299;97818;-69
2023/01/05 07:18:45;;;;;;;4.10;2.80;;;;;;;7.47;92.05;98745.04;99745;1284;137438;-69
2023/01/05 07:21:12;;;;;;;4.70;2.90;;;;;;;7.47;92.14;98741.55;99816;1293;97924;-70
2023/01/05 07:23:40;;;;;;;4.70;3.30;;;;;;;7.48;92.25;98745.30;99902;1293;111278;-70
2023/01/05 07:26:07;;;;;;;6.10;3.40;;;;;;;7.49;92.40;98742.17;99944;1291;108026;-71
2023/01/05 07:28:34;;;;;;;7.10;3.50;;;;;;;7.47;92.39;98744.65;100004;1295;98307;-71
2023/01/05 07:31:02;;;;;;;4.50;3.40;;;;;;;7.49;92.50;98745.11;99774;1297;139769;-70
2023/01/05 07:33:29;;;;;;;8.90;3.50;;;;;;;7.48;92.56;98742.19;99774;1287;97705;-70
2023/01/05 07:36:04;;;;;;;5.40;3.40;;;;;;;7.49;92.61;98742.52;99796;1291;138335;-70
2023/01/05 07:38:33;;;;;;;5.50;3.40;;;;;;;7.50;92.64;98747.15;99888;1301;107960;-70
2023/01/05 07:41:02;;;;;;;6.40;3.70;;;;;;;7.53;92.65;98746.66;99931;1293;98358;-70
2023/01/05 07:43:29;;;;;;;6.20;3.30;;;;;;;7.55;92.70;98745.89;99774;1293;139339;-70
2023/01/05 07:46:00;;;;;;;7.30;3.40;;;;;;;7.57;92.77;98751.15;99903;1291;97943;-70
2023/01/05 07:48:27;;;;;;;7.80;3.70;;;;;;;7.60;92.72;98743.60;99766;1293;137458;-70
2023/01/05 07:51:01;;;;;;;5.50;3.00;;;;;;;7.63;92.72;98749.36;99814;1293;109032;-70
2023/01/05 07:53:29;;;;;;;5.50;3.30;;;;;;;7.64;92.74;98748.27;100024;1292;97873;-70
2023/01/05 07:56:00;;;;;;;6.70;4.00;;;;;;;7.66;92.64;98749.20;99795;1293;137578;-70
2023/01/05 07:58:28;;;;;;;5.50;3.50;;;;;;;7.69;92.61;98750.09;99892;1283;98167;-71
2023/01/05 08:00:55;;;;;;;9.20;3.50;;;;;;;7.72;92.61;98750.66;99645;1293;137603;-71
2023/01/05 08:03:23;;;;;;;6.80;3.60;;;;;;;7.75;92.52;98752.98;99785;1293;108292;-71
2023/01/05 08:05:50;;;;;;;5.20;3.20;;;;;;;7.77;92.46;98754.77;99765;1290;139360;-71
2023/01/05 08:08:17;;;;;;;5.70;3.40;;;;;;;7.79;92.40;98751.05;99837;1277;107759;-71
2023/01/05 08:10:50;;;;;;;5.60;2.80;;;;;;;7.82;92.36;98750.21;99849;1285;97818;-70
2023/01/05 08:16:02;;;;;;;5.60;3.20;;;;;;;7.82;92.22;98748.47;99916;1292;107443;-70
2023/01/05 08:18:30;;;;;;;5.00;3.40;;;;;;;7.82;92.15;98759.02;99788;1297;138312;-70
2023/01/05 08:20:58;;;;;;;5.30;3.10;;;;;;;7.84;92.10;98756.89;99192;1290;1003581;-70
2023/01/05 08:23:27;;;;;;;6.00;3.10;;;;;;;7.83;91.88;98758.84;99910;1284;97919;-70
2023/01/05 08:25:54;;;;;;;7.70;2.90;;;;;;;7.83;91.83;98763.13;99859;1290;137699;-71
2023/01/05 08:28:22;;;;;;;4.60;2.90;;;;;;;7.84;91.73;98765.52;99205;1290;1003421;-69
2023/01/05 08:30:49;;;;;;;8.90;3.20;;;;;;;7.85;91.62;98768.39;99838;1283;137981;-71
2023/01/05 08:33:16;;;;;;;7.10;3.30;;;;;;;7.86;91.54;98766.30;99923;1290;108983;-69
2023/01/05 08:35:44;;;;;;;6.00;3.00;;;;;;;7.86;91.37;98765.77;99835;1284;138678;-70
2023/01/05 08:38:12;;;;;;;6.20;3.20;;;;;;;7.87;91.30;98770.59;99863;1291;110928;-70
2023/01/05 08:40:39;;;;;;;8.20;3.30;;;;;;;7.87;91.19;98770.58;99893;1290;106288;-70
2023/01/05 08:43:06;;;;;;;10.10;3.50;;;;;;;7.86;90.92;98769.73;99834;1291;137760;-70
2023/01/05 08:45:34;;;;;;;6.20;3.30;;;;;;;7.86;90.93;98768.03;99868;1298;108843;-70
2023/01/05 08:48:02;;;;;;;6.50;3.40;;;;;;;7.85;90.96;98776.70;99823;1290;139137;-70
2023/01/05 08:50:30;;;;;;;9.80;3.60;;;;;;;7.85;90.98;98782.95;99908;1293;111229;-70
2023/01/05 08:52:58;;;;;;;6.10;3.50;;;;;;;7.85;90.97;98778.29;99880;1290;108929;-70
2023/01/05 08:55:25;;;;;;;8.00;3.50;;;;;;;7.85;90.97;98788.17;99801;1290;138209;-70
2023/01/05 08:57:52;;;;;;;5.30;3.50;;;;;;;7.85;90.89;98794.04;99856;1284;107027;-71
2023/01/05 09:00:22;;;;;;;7.60;3.80;;;;;;;7.87;91.00;98798.09;99726;1291;138027;-70
2023/01/05 09:02:49;;;;;;;8.10;4.10;;;;;;;7.88;91.15;98801.65;99818;1293;110829;-71
2023/01/05 09:05:17;;;;;;;7.70;4.40;;;;;;;7.91;91.06;98809.02;99857;1291;108190;-70
2023/01/05 09:07:44;;;;;;;10.00;4.70;;;;;;;7.92;91.07;98822.49;99773;1290;137698;-71
2023/01/05 09:10:12;;;;;;;7.40;3.20;;;;;;;7.89;90.33;98822.41;99808;1291;105488;-70
2023/01/05 09:12:39;;;;;;;5.40;2.10;;;;;;;7.83;89.79;98819.35;99786;1285;137795;-70
2023/01/05 09:15:08;;;;;;;8.10;2.30;;;;;;;7.80;89.07;98823.50;99978;1291;110366;-70
2023/01/05 09:17:37;;;;;;;7.10;2.30;;;;;;;7.77;88.53;98825.02;100582;1290;105622;-70
2023/01/05 09:20:07;;;;;;;5.00;1.80;;;;;;;7.74;88.15;98831.02;99865;1294;98338;-71
2023/01/05 09:22:36;;;;;;;6.10;3.10;;;;;;;7.74;88.12;98825.69;99787;1290;107604;-69
2023/01/05 09:25:03;;;;;;;4.50;2.20;;;;;;;7.72;88.01;98830.92;99701;1287;137763;-71
2023/01/05 09:27:30;;;;;;;3.20;1.80;;;;;;;7.71;87.80;98843.09;99843;1291;111164;-70
2023/01/05 09:29:57;;;;;;;3.50;1.90;;;;;;;7.73;87.90;98840.96;99695;1290;137929;-70
2023/01/05 09:32:24;;;;;;;4.00;1.90;;;;;;;7.72;87.77;98834.23;99824;1287;97953;-70
2023/01/05 09:34:51;;;;;;;5.90;2.00;;;;;;;7.73;87.56;98837.14;99379;1293;1002644;-71
2023/01/05 09:37:19;;;;;;;4.10;2.00;;;;;;;7.76;87.45;98833.37;100518;1292;139837;-70
2023/01/05 09:39:46;;;;;;;5.70;2.20;;;;;;;7.80;86.87;98844.25;99955;1285;111635;-70
2023/01/05 09:42:17;;;;;;;7.40;2.20;;;;;;;7.87;86.77;98843.76;100184;1291;138106;-71
2023/01/05 09:44:48;;;;;;;8.40;3.40;;;;;;;7.95;86.37;98840.70;99855;1287;97895;-69
2023/01/05 09:47:30;;;;;;;7.20;3.90;;;;;;;8.00;85.77;98847.88;99822;1292;107369;-71
2023/01/05 09:49:59;;;;;;;4.20;1.70;;;;;;;8.07;85.77;98850.55;100723;1277;137853;-71
2023/01/05 09:52:28;;;;;;;4.20;1.80;;;;;;;8.12;85.13;98844.95;99817;1291;110465;-71
2023/01/05 09:55:10;;;;;;;6.70;1.70;;;;;;;8.14;84.62;98844.16;99934;1291;137851;-71
2023/01/05 09:57:38;;;;;;;4.30;1.70;;;;;;;8.18;84.45;98842.08;100565;1284;96576;-70
2023/01/05 10:00:15;;;;;;;6.00;2.00;;;;;;;8.25;84.17;98837.23;99772;1293;139183;-72
2023/01/05 10:02:49;;;;;;;3.80;1.70;;;;;;;8.34;84.17;98847.24;101262;1285;95564;-71
2023/01/05 10:05:17;;;;;;;5.60;2.20;;;;;;;8.48;83.88;98845.40;99836;1286;111543;-71
2023/01/05 10:07:50;;;;;;;7.20;2.30;;;;;;;8.57;83.63;98849.17;99653;1283;138381;-71
2023/01/05 10:10:28;;;;;;;5.90;2.20;;;;;;;8.60;83.27;98851.44;99125;1293;1003661;-71
2023/01/05 10:13:05;;;;;;;6.80;2.20;;;;;;;8.63;83.30;98852.70;99776;1284;139517;-70
2023/01/05 10:15:44;;;;;;;4.00;2.50;;;;;;;8.65;83.19;98847.59;100476;1292;97834;-71
2023/01/05 10:18:14;;;;;;;7.80;2.70;;;;;;;8.68;83.14;98852.65;101261;1294;138319;-70
2023/01/05 10:20:54;;;;;;;5.80;2.70;;;;;;;8.75;82.93;98847.28;99976;1290;107544;-70
2023/01/05 10:23:43;;;;;;;5.20;2.80;;;;;;;8.85;82.94;98841.77;99776;1284;97807;-70
2023/01/05 10:26:16;;;;;;;7.60;2.80;;;;;;;8.92;82.11;98846.10;99783;1291;107340;-70
2023/01/05 10:28:53;;;;;;;4.10;2.40;;;;;;;8.93;82.29;98846.40;99815;1299;97842;-70
2023/01/05 10:31:25;;;;;;;6.40;2.40;;;;;;;8.95;82.47;98846.46;99834;1290;137789;-70
2023/01/05 10:34:06;;;;;;;6.00;2.30;;;;;;;9.01;82.67;98843.27;99906;1291;108641;-70
2023/01/05 10:37:07;;;;;;;5.30;2.70;;;;;;;9.12;82.45;98840.46;99876;1298;138259;-71
2023/01/05 10:39:55;;;;;;;6.10;3.10;;;;;;;9.29;82.03;98838.75;99908;1290;108456;-70
2023/01/05 10:42:36;;;;;;;10.10;3.50;;;;;;;9.35;80.87;98832.77;99814;1298;139680;-69
2023/01/05 10:45:12;;;;;;;6.30;3.20;;;;;;;9.33;80.60;98839.77;100635;1291;110929;-70
2023/01/05 10:47:41;;;;;;;7.70;3.60;;;;;;;9.32;80.53;98845.36;100235;1290;108360;-70
2023/01/05 10:50:36;;;;;;;6.90;3.10;;;;;;;9.29;79.74;98841.38;99909;1293;98355;-70
2023/01/05 10:53:11;;;;;;;7.20;3.70;;;;;;;9.26;79.43;98844.66;100541;1299;107712;-71
2023/01/05 10:55:48;;;;;;;7.70;3.50;;;;;;;9.23;78.78;98839.43;100223;1291;139449;-71
2023/01/05 10:58:27;;;;;;;6.00;3.60;;;;;;;9.17;78.28;98839.58;99870;1293;111780;-70
2023/01/05 11:00:59;;;;;;;8.70;4.00;;;;;;;9.07;78.28;98841.71;100270;1283;137994;-70
2023/01/05 11:03:34;;;;;;;6.40;3.60;;;;;;;8.98;77.86;98845.49;99812;1300;97822;-69
2023/01/05 11:06:25;;;;;;;9.90;4.00;;;;;;;8.87;78.04;98846.70;99679;1293;139652;-70
2023/01/05 11:08:53;;;;;;;11.50;3.80;;;;;;;8.78;78.18;98850.61;99863;1283;97855;-71
2023/01/05 11:11:26;;;;;;;8.70;3.50;;;;;;;8.68;77.72;98843.44;99903;1291;111145;-71
2023/01/05 11:13:56;;;;;;;7.80;3.20;;;;;;;8.58;78.09;98848.92;99676;1290;138029;-70
2023/01/05 11:16:26;;;;;;;7.30;3.30;;;;;;;8.50;78.18;98843.58;100762;1290;97803;-70
2023/01/05 11:18:56;;;;;;;8.60;3.70;;;;;;;8.43;78.52;98846.67;100243;1284;138916;-71
2023/01/05 11:21:25;;;;;;;8.80;3.70;;;;;;;8.40;78.78;98847.49;99809;1297;98043;-70
2023/01/05 11:23:54;;;;;;;8.10;3.40;;;;;;;8.35;78.79;98850.33;99697;1291;140784;-70
2023/01/05 11:26:33;;;;;;;7.30;3.10;;;;;;;8.31;79.04;98848.05;99793;1297;107711;-71
2023/01/05 11:29:14;;;;;;;7.50;3.50;;;;;;;8.31;79.41;98852.95;99855;1299;97850;-70
2023/01/05 11:31:45;;;;;;;10.40;3.30;;;;;;;8.32;79.74;98854.44;99836;1291;137688;-70
2023/01/05 11:34:26;;;;;;;8.60;3.50;;;;;;;8.32;79.69;98853.23;99934;1293;97743;-70
2023/01/05 11:36:55;;;;;;;13.20;4.10;;;;;;;8.30;79.93;98855.02;99705;1292;138733;-70
2023/01/05 11:39:31;;;;;;;8.50;3.60;;;;;;;8.32;80.30;98855.10;100003;1291;105885;-70
2023/01/05 11:42:14;;;;;;;10.60;4.00;;;;;;;8.34;80.58;98852.80;101241;1293;138834;-71
2023/01/05 11:44:53;;;;;;;7.60;3.20;;;;;;;8.35;80.40;98845.85;101309;1293;106827;-71
2023/01/05 11:47:27;;;;;;;10.20;3.40;;;;;;;8.34;80.15;98852.98;101339;1291;96050;-71
2023/01/05 11:50:02;;;;;;;5.90;2.80;;;;;;;8.34;79.78;98850.02;99963;1290;138049;-70
2023/01/05 11:52:37;;;;;;;6.40;2.80;;;;;;;8.33;79.42;98846.26;99843;1291;108292;-70
2023/01/05 11:58:29;;;;;;;14.60;3.50;;;;;;;8.31;79.42;98842.70;96967;1334;636730;-71
2023/01/05 12:01:09;;;;;;;8.60;2.80;;;;;;;8.28;79.15;98846.98;98888;1308;136993;-70
2023/01/05 12:04:00;;;;;;;7.00;2.50;;;;;;;8.28;79.11;98850.64;98697;1305;106304;-70
2023/01/05 12:06:37;;;;;;;6.60;2.50;;;;;;;8.29;78.97;98846.42;98635;1305;136699;-70
2023/01/05 12:09:13;;;;;;;9.20;2.80;;;;;;;8.29;78.68;98846.09;99035;1304;107422;-70
2023/01/05 12:11:52;;;;;;;9.10;2.70;;;;;;;8.27;78.28;98854.16;99013;1294;126624;-70
2023/01/05 12:14:31;;;;;;;8.50;2.40;;;;;;;8.22;78.07;98853.14;100450;1309;92524;-70
2023/01/05 12:17:03;;;;;;;7.00;2.20;;;;;;;8.20;78.02;98860.31;98823;1305;106639;-71
2023/01/05 12:19:48;;;;;;;11.20;2.40;;;;;;;8.21;78.02;98865.48;99614;1300;136845;-71
2023/01/05 12:22:51;;;;;;;11.20;2.90;;;;;;;8.19;77.84;98862.10;99957;1300;105819;-71
2023/01/05 12:25:31;;;;;;;12.10;2.60;;;;;;;8.17;77.94;98861.70;100617;1302;137154;-70
2023/01/05 12:28:33;;;;;;;7.60;2.70;;;;;;;8.16;77.97;98869.33;100553;1301;95193;-70